Tiempo atmosférico en la estación meteorológica de Josa i Tuixén, Lleida (1190 m.)



Fecha
DESCASC
Temp. máxima en grados centígrados (hora)
DESCASC
Temp. mínima en grados centígrados (hora)
DESCASC
Temp. media en grados centígrados
DESCASC
Racha de viento máxima en m/sg (hora)
DESCASC
Velocidad máxima media en intervalos de 10 minutos(hora)
DESCASC
Precipitaciones diarias en mm
DESCASC
Precipitaciones de 00:00 a 06:00 en mm
DESCASC
Precipitaciones de 06:00 a 12:00 en mm
DESCASC
Precipitaciones de 12:00 a 18:00 en mm
DESCASC
Precipitaciones de 18:00 a 24:00 en mm
DESCASC

Gráficas

Temp. máximas Temp. mínimas Temp. medias Precipitaciones Rachas de viento máximas Velocidades máximas media en intervalos de 10 minutos

Datos horarios

Fecha y hora oficial Temperatura (ºC) Velocidad del viento (km/h) Dirección del viento Racha (km/h) Dirección de racha Precipitación (mm) Presión (hPa) Tendencia (hPa) Humedad (%)
2020-01-22 23:00:00 -- -- -- -- -- -- -- -- --
2020-01-22 22:00:00 -- -- -- -- -- -- -- -- --
2020-01-22 21:00:00 -- -- -- -- -- -- -- -- --
2020-01-22 20:00:00 -- -- -- -- -- -- -- -- --
2020-01-22 19:00:00 -- -- -- -- -- -- -- -- --
2020-01-22 18:00:00 -- -- -- -- -- -- -- -- --
2020-01-22 17:00:00 -- -- -- -- -- -- -- -- --
2020-01-22 16:00:00 -- -- -- -- -- -- -- -- --
2020-01-22 15:00:00 -- -- -- -- -- -- -- -- --
2020-01-22 14:00:00 -- -- -- -- -- -- -- -- --
2020-01-22 13:00:00 -- -- -- -- -- -- -- -- --
2020-01-22 12:00:00 -- -- -- -- -- -- -- -- --
2020-01-22 11:00:00 -- -- -- -- -- -- -- -- --
2020-01-22 10:00:00 -- -- -- -- -- -- -- -- --
2020-01-22 09:00:00 -- -- -- -- -- -- -- -- --
2020-01-22 08:00:00 -- -- -- -- -- -- -- -- --
2020-01-22 07:00:00 -- -- -- -- -- -- -- -- --
2020-01-22 06:00:00 -- -- -- -- -- -- -- -- --
2020-01-22 05:00:00 -- -- -- -- -- -- -- -- --
2020-01-22 04:00:00 0.2 0 Calma 4 Oeste 5.2 -- -- 99
2020-01-22 03:00:00 0.3 0 Calma 6 Sudeste 9.2 -- -- 98
2020-01-22 02:00:00 0.8 5 Sudoeste 10 Sudoeste 10.6 -- -- 97
2020-01-22 01:00:00 2 6 Sur 18 Sudoeste 9.6 -- -- 92
2020-01-22 00:00:00 3.9 6 Sur 54 Oeste 3.2 -- -- 86
2020-01-21 23:00:00 4.2 14 Sudoeste 44 Sudoeste 1.8 -- -- 85
2020-01-21 22:00:00 4.4 14 Sudoeste 50 Sudoeste 0.4 -- -- 82
2020-01-21 21:00:00 4.5 19 Sudoeste 60 Sudoeste 0.6 -- -- 81
2020-01-21 20:00:00 4 13 Sudoeste 38 Oeste 1.2 -- -- 85
2020-01-21 19:00:00 4.2 17 Sudoeste 60 Sudoeste 0.6 -- -- 83
2020-01-21 18:00:00 4.1 18 Sudoeste 57 Oeste 0 -- -- 84
2020-01-21 17:00:00 3.9 17 Sudoeste 51 Sudoeste 1 -- -- 83
2020-01-21 16:00:00 3.7 16 Sudoeste 41 Sudoeste 4.2 -- -- 83
2020-01-21 15:00:00 2.9 9 Sur 29 Sudoeste 5.2 -- -- 87
2020-01-21 14:00:00 3.1 10 Sudoeste 29 Sudoeste 5.8 -- -- 87
2020-01-21 13:00:00 2.9 5 Sur 40 Sudoeste 5.4 -- -- 87
2020-01-21 12:00:00 4 17 Sudoeste 56 Sudoeste 0.2 -- -- 82
2020-01-21 11:00:00 3.6 24 Sudoeste 52 Sudoeste 2.4 -- -- 82
2020-01-21 10:00:00 3.5 17 Sudoeste 49 Sudoeste 0.8 -- -- 81
2020-01-21 09:00:00 2.8 13 Sudoeste 42 Sur 3 -- -- 84
2020-01-21 08:00:00 3.3 14 Sudoeste 35 Sudoeste 0.2 -- -- 78
2020-01-21 07:00:00 2.9 9 Sur 38 Sudoeste 0 -- -- 79
2020-01-21 06:00:00 2.2 9 Sudoeste 26 Sudoeste 0.8 -- -- 84
2020-01-21 05:00:00 3.4 9 Sudoeste 36 Sur 0 -- -- 71
2020-01-21 04:00:00 3.9 9 Sudoeste 33 Sudoeste 0 -- -- 63
2020-01-21 03:00:00 4.3 6 Sudoeste 29 Sudoeste 0 -- -- 56
2020-01-21 02:00:00 4 7 Sudoeste 30 Sur 0 -- -- 54
2020-01-21 01:00:00 3.8 4 Noroeste 21 Oeste 0 -- -- 54
2020-01-21 00:00:00 3.6 4 Sur 30 Sudoeste 0 -- -- 55
2020-01-20 23:00:00 3.4 4 Sudeste 26 Sudeste 0 -- -- 55
2020-01-20 22:00:00 3.5 5 Sur 35 Sudoeste 0 -- -- 54
2020-01-20 21:00:00 4 12 Sur 29 Sudoeste 0 -- -- 54
2020-01-20 20:00:00 3.1 7 Este 26 Este 0 -- -- 56
2020-01-20 19:00:00 2.8 14 Este 27 Sudeste 0 -- -- 57
2020-01-20 18:00:00 4 10 Oeste 22 Oeste 0 -- -- 57
2020-01-20 17:00:00 4 6 Sudoeste 27 Este 0 -- -- 56
2020-01-20 16:00:00 4 6 Sudeste 21 Este 0 -- -- 61
2020-01-20 15:00:00 3.3 7 Sudeste 26 Oeste 0 -- -- 70
2020-01-20 14:00:00 4.1 9 Noroeste 27 Noroeste 0 -- -- 58
2020-01-20 13:00:00 4 16 Noroeste 35 Oeste 0 -- -- 60
2020-01-20 12:00:00 4.1 5 Este 24 Sudoeste 0 -- -- 52
2020-01-20 11:00:00 3.4 6 Sudoeste 22 Este 0 -- -- 54
2020-01-20 10:00:00 2.1 9 Este 23 Sudeste 0 -- -- 61
2020-01-20 09:00:00 2 6 Nordeste 17 Nordeste 0 -- -- 54
2020-01-20 08:00:00 1.6 4 Sur 17 Este 0 -- -- 47
2020-01-20 07:00:00 1.4 4 Sudoeste 32 Este 0 -- -- 44
2020-01-20 06:00:00 2 12 Este 30 Este 0 -- -- 38
2020-01-20 05:00:00 0.7 8 Sudoeste 25 Nordeste 0 -- -- 35
2020-01-20 04:00:00 -0.7 4 Sur 15 Sudeste 0 -- -- 37
2020-01-20 03:00:00 -0.9 6 Sur 14 Sur 0 -- -- 38
2020-01-20 02:00:00 -- -- -- -- -- -- -- -- --
2020-01-20 01:00:00 -0.4 5 Oeste 18 Sudeste 0 -- -- 33
2020-01-20 00:00:00 -1 6 Sudeste 18 Sur 0 -- -- 35
2020-01-19 23:00:00 -1.4 7 Sudeste 16 Sur 0 -- -- 36
2020-01-19 22:00:00 -1.1 5 Este 18 Este 0 -- -- 35
2020-01-19 21:00:00 -0.1 5 Nordeste 33 Sudeste 0 -- -- 30
2020-01-19 20:00:00 0.5 8 Nordeste 27 Oeste 0 -- -- 25
2020-01-19 19:00:00 1.6 6 Este 28 Sur 0 -- -- 23
2020-01-19 18:00:00 1.9 9 Sudoeste 41 Este 0 -- -- 22
2020-01-19 17:00:00 3.5 8 Sur 29 Sur 0 -- -- 23
2020-01-19 16:00:00 5 10 Sudeste 29 Sudeste 0 -- -- 25
2020-01-19 15:00:00 6.4 7 Sudeste 29 Sur 0 -- -- 25
2020-01-19 14:00:00 6.5 9 Oeste 21 Nordeste 0 -- -- 27
2020-01-19 13:00:00 5.6 7 Norte 35 Este 0 -- -- 36
2020-01-19 12:00:00 5.6 8 Sur 32 Sur 0 -- -- 34
2020-01-19 11:00:00 5 9 Sudeste 23 Sudeste 0 -- -- 34
2020-01-19 10:00:00 1.4 7 Sur 14 Oeste 0 -- -- 79
2020-01-19 09:00:00 -0.2 2 Nordeste 9 Este 0 -- -- 89
2020-01-19 08:00:00 -0.4 3 Sur 8 Oeste 0 -- -- 92
2020-01-19 07:00:00 -0.1 0 Calma 9 Nordeste 0 -- -- 90
2020-01-19 06:00:00 0.1 0 Calma 4 Sudoeste 0.2 -- -- 86
2020-01-19 05:00:00 0.7 0 Calma 5 Sur 0 -- -- 78
2020-01-19 04:00:00 0.9 0 Calma 5 Sudoeste 0 -- -- 74
2020-01-19 03:00:00 0.2 0 Calma 5 Este 0 -- -- 75
2020-01-19 02:00:00 -0.6 0 Calma 5 Sudeste 0 -- -- 75
2020-01-19 01:00:00 0.1 2 Sudoeste 5 Oeste 0 -- -- 69
2020-01-19 00:00:00 0.8 4 Nordeste 7 Nordeste 0 -- -- 71
2020-01-18 23:00:00 0.7 0 Calma 4 Sur 0 -- -- 70
2020-01-18 22:00:00 -0.1 0 Calma 4 Sudeste 0 -- -- 72
2020-01-18 21:00:00 -0.8 0 Calma 5 Oeste 0 -- -- 71
2020-01-18 20:00:00 -0.2 2 Sur 4 Oeste 0 -- -- 66
2020-01-18 19:00:00 0.9 0 Calma 5 Sudeste 0 -- -- 61
2020-01-18 18:00:00 2.4 0 Calma 6 Sudoeste 0 -- -- 58
2020-01-18 17:00:00 5 3 Sudoeste 9 Noroeste 0 -- -- 46
2020-01-18 16:00:00 8.6 5 Oeste 13 Oeste 0 -- -- 43
2020-01-18 15:00:00 9.4 5 Noroeste 13 Norte 0 -- -- 36
2020-01-18 14:00:00 8.8 5 Oeste 15 Oeste 0 -- -- 34
2020-01-18 13:00:00 7 9 Oeste 15 Oeste 0 -- -- 38
2020-01-18 12:00:00 3.2 2 Oeste 7 Este 0 -- -- 50
2020-01-18 11:00:00 1.6 2 Este 8 Oeste 0 -- -- 52
2020-01-18 10:00:00 0.4 0 Calma 8 Nordeste 0 -- -- 61
2020-01-18 09:00:00 -1.3 2 Sudoeste 10 Sur 0 -- -- 69
2020-01-18 08:00:00 -1.4 2 Sur 8 Sudoeste 0 -- -- 67
2020-01-18 07:00:00 -1.6 0 Calma 6 Este 0 -- -- 63
2020-01-18 06:00:00 -1.8 2 Sudeste 4 Sudoeste 0 -- -- 64
2020-01-18 05:00:00 -2 4 Este 6 Nordeste 0 -- -- 65
2020-01-18 04:00:00 -2.7 0 Calma 10 Este 0 -- -- 66
2020-01-18 03:00:00 -2.6 0 Calma 9 Este 0 -- -- 64
2020-01-18 02:00:00 -1.6 0 Calma 7 Sur 0 -- -- 61
2020-01-18 01:00:00 0.1 6 Este 15 Este 0 -- -- 55
2020-01-18 00:00:00 -0.7 7 Este 13 Este 0 -- -- 61
2020-01-17 23:00:00 -1.8 4 Oeste 7 Sudoeste 0 -- -- 67
2020-01-17 22:00:00 -1 0 Calma 12 Este 0 -- -- 64
2020-01-17 21:00:00 0.7 3 Sudeste 15 Oeste 0 -- -- 57
2020-01-17 20:00:00 3.5 8 Sudeste 20 Sur 0 -- -- 44
2020-01-17 19:00:00 2.3 5 Sur 16 Este 0 -- -- 62
2020-01-17 18:00:00 3.6 4 Oeste 27 Oeste 0 -- -- 66
2020-01-17 17:00:00 5.4 5 Sudeste 27 Oeste 0 -- -- 64
2020-01-17 16:00:00 5.3 5 Este 24 Nordeste 0 -- -- 78
2020-01-17 15:00:00 7 14 Nordeste 30 Norte 0 -- -- 64
2020-01-17 14:00:00 8.5 8 Nordeste 21 Nordeste 0 -- -- 59
2020-01-17 13:00:00 8.6 7 Nordeste 20 Nordeste 0 -- -- 61
2020-01-17 12:00:00 8.5 6 Nordeste 13 Norte 0 -- -- 61
2020-01-17 11:00:00 5.4 2 Este 9 Sudeste 0 -- -- 81
2020-01-17 10:00:00 1.3 0 Calma 5 Norte 0 -- -- 92
2020-01-17 09:00:00 1.8 0 Calma 10 Nordeste 0 -- -- 89
2020-01-17 08:00:00 3.7 4 Este 11 Sudeste 0 -- -- 82
2020-01-17 07:00:00 3.9 3 Oeste 17 Este 0 -- -- 80
2020-01-17 06:00:00 3 5 Sudeste 13 Sudeste 0 -- -- 89
2020-01-17 05:00:00 2.9 5 Sudeste 10 Sudeste 0 -- -- 90
2020-01-17 04:00:00 2.5 3 Sudeste 7 Este 0 -- -- 89
2020-01-17 03:00:00 2.5 0 Calma 6 Nordeste 0 -- -- 90
2020-01-17 02:00:00 3 2 Este 9 Nordeste 0 -- -- 87
2020-01-17 01:00:00 2.5 2 Este 10 Este 0 -- -- 89
2020-01-17 00:00:00 2 2 Este 9 Este 0 -- -- 88
2020-01-16 23:00:00 1.7 3 Sudeste 6 Sur 0 -- -- 91
2020-01-16 22:00:00 1.7 3 Sudeste 6 Este 0 -- -- 89
2020-01-16 21:00:00 1.7 3 Sudoeste 6 Este 0 -- -- 86
2020-01-16 20:00:00 2.6 0 Calma 5 Sudeste 0 -- -- 82
2020-01-16 19:00:00 3.7 0 Calma 6 Este 0 -- -- 78
2020-01-16 18:00:00 5 2 Este 10 Sudeste 0 -- -- 70
2020-01-16 17:00:00 7.4 4 Noroeste 22 Nordeste 0 -- -- 56
2020-01-16 16:00:00 10.7 8 Nordeste 17 Nordeste 0 -- -- 44
2020-01-16 15:00:00 11.2 6 Nordeste 13 Nordeste 0 -- -- 38
2020-01-16 14:00:00 11.4 7 Oeste 14 Oeste 0 -- -- 37
2020-01-16 13:00:00 10 6 Sudoeste 14 Oeste 0 -- -- 41
2020-01-16 12:00:00 7.8 2 Oeste 5 Oeste 0 -- -- 52
2020-01-16 11:00:00 4 0 Calma 3 Noroeste 0 -- -- 65
2020-01-16 10:00:00 -0.7 0 Calma 4 Oeste 0 -- -- 80
2020-01-16 09:00:00 -1.6 0 Calma 3 Este 0 -- -- 78
2020-01-16 08:00:00 -1.8 0 Calma 4 Oeste 0 -- -- 78
2020-01-16 07:00:00 -1.2 0 Calma 4 Sur 0 -- -- 75
2020-01-16 06:00:00 -1.1 0 Calma 4 Este 0 -- -- 75
2020-01-16 05:00:00 -1 0 Calma 3 Sudeste 0 -- -- 73
2020-01-16 04:00:00 -1 0 Calma 4 Sudoeste 0 -- -- 73
2020-01-16 03:00:00 -0.3 0 Calma 4 Sudoeste 0 -- -- 69
2020-01-16 02:00:00 -0.7 2 Este 5 Este 0 -- -- 71
2020-01-16 01:00:00 0 0 Calma 5 Este 0 -- -- 68
2020-01-16 00:00:00 0.6 0 Calma 6 Nordeste 0 -- -- 66
2020-01-15 23:00:00 0.6 0 Calma 5 Este 0 -- -- 70
2020-01-15 22:00:00 1.1 0 Calma 4 Este 0 -- -- 71
2020-01-15 21:00:00 0.9 3 Este 6 Este 0 -- -- 74
2020-01-15 20:00:00 1.6 2 Sudoeste 7 Nordeste 0 -- -- 69
2020-01-15 19:00:00 3.1 3 Este 6 Este 0 -- -- 65
2020-01-15 18:00:00 4.4 0 Calma 7 Nordeste 0 -- -- 61
2020-01-15 17:00:00 6.5 2 Sur 9 Sudoeste 0 -- -- 51
2020-01-15 16:00:00 10.3 6 Norte 17 Este 0 -- -- 41
2020-01-15 15:00:00 10.4 4 Nordeste 12 Norte 0 -- -- 35
2020-01-15 14:00:00 10 3 Nordeste 10 Oeste 0 -- -- 34
2020-01-15 13:00:00 8.8 3 Oeste 10 Oeste 0 -- -- 36
2020-01-15 12:00:00 5.4 4 Sudoeste 11 Oeste 0 -- -- 44
2020-01-15 11:00:00 3.3 0 Calma 3 Oeste 0 -- -- 60
2020-01-15 10:00:00 -0.3 0 Calma 3 Sudoeste 0 -- -- 69
2020-01-15 09:00:00 -1.4 0 Calma 3 Oeste 0 -- -- 65
2020-01-15 08:00:00 -1.1 0 Calma 4 Este 0 -- -- 61
2020-01-15 07:00:00 -1.2 0 Calma 5 Sudeste 0 -- -- 61
2020-01-15 06:00:00 -1.1 0 Calma 3 Este 0 -- -- 58
2020-01-15 05:00:00 -0.5 0 Calma 5 Este 0 -- -- 52
2020-01-15 04:00:00 -0.9 0 Calma 5 Este 0 -- -- 51
2020-01-15 03:00:00 -1 3 Este 6 Este 0 -- -- 53
2020-01-15 02:00:00 -0.9 0 Calma 5 Este 0 -- -- 48
2020-01-15 01:00:00 -0.9 0 Calma 4 Sur 0 -- -- 48
2020-01-15 00:00:00 -0.5 0 Calma 5 Sur 0 -- -- 45
2020-01-14 23:00:00 -0.4 0 Calma 3 Oeste 0 -- -- 49
2020-01-14 22:00:00 0.1 0 Calma 3 Este 0 -- -- 48
2020-01-14 21:00:00 0.6 0 Calma 3 Oeste 0 -- -- 47
2020-01-14 20:00:00 1.3 0 Calma 4 Oeste 0 -- -- 50
2020-01-14 19:00:00 2.5 0 Calma 3 Sur 0 -- -- 49
2020-01-14 18:00:00 4.2 0 Calma 6 Nordeste 0 -- -- 45
2020-01-14 17:00:00 6 0 Calma 9 Oeste 0 -- -- 38
2020-01-14 16:00:00 11 4 Noroeste 10 Noroeste 0 -- -- 32
2020-01-14 15:00:00 12.2 4 Norte 10 Noroeste 0 -- -- 27
2020-01-14 14:00:00 12.5 5 Oeste 11 Nordeste 0 -- -- 29
2020-01-14 13:00:00 10 3 Norte 10 Nordeste -- -- -- 32
2020-01-14 12:00:00 8.6 2 Oeste 5 Oeste 0 -- -- 37
2020-01-14 11:00:00 4.4 0 Calma 6 Noroeste 0 -- -- 44
2020-01-14 10:00:00 -0.5 0 Calma 2 Sudoeste 0 -- -- 59
2020-01-14 09:00:00 -1.2 0 Calma 4 Oeste 0 -- -- 55
2020-01-14 08:00:00 -0.8 0 Calma 5 Oeste 0 -- -- 56
2020-01-14 07:00:00 -0.7 0 Calma 5 Sur 0 -- -- 56
2020-01-14 06:00:00 -1.1 0 Calma 4 Oeste 0 -- -- 59
2020-01-14 05:00:00 -1.2 0 Calma 5 Noroeste 0 -- -- 57
2020-01-14 04:00:00 -1 0 Calma 6 Este 0 -- -- 57
2020-01-14 03:00:00 -0.9 0 Calma 4 Este 0 -- -- 56
2020-01-14 02:00:00 -1.1 0 Calma 3 Nordeste 0 -- -- 57
2020-01-14 01:00:00 -0.8 0 Calma 5 Noroeste 0 -- -- 55
2020-01-14 00:00:00 -0.6 0 Calma 5 Sur 0 -- -- 55
2020-01-13 23:00:00 -0.2 0 Calma 5 Sur 0 -- -- 56
2020-01-13 22:00:00 0.1 2 Oeste 5 Este 0 -- -- 56
2020-01-13 21:00:00 0.3 3 Nordeste 8 Nordeste 0 -- -- 58
2020-01-13 20:00:00 0.9 0 Calma 6 Este 0 -- -- 53
2020-01-13 19:00:00 2.4 2 Sudoeste 6 Oeste 0 -- -- 53
2020-01-13 18:00:00 4 5 Este 9 Este 0 -- -- 50
2020-01-13 17:00:00 7 0 Calma 5 Sudoeste 0 -- -- 49
2020-01-13 16:00:00 9.1 0 Calma 6 Oeste 0 -- -- 34
2020-01-13 15:00:00 10.1 0 Calma 8 Nordeste 0 -- -- 28
2020-01-13 14:00:00 8.8 3 Este 9 Noroeste 0 -- -- 26
2020-01-13 13:00:00 8.1 0 Calma 5 Noroeste 0 -- -- 30
2020-01-13 12:00:00 6.5 3 Oeste 6 Noroeste 0 -- -- 37
2020-01-13 11:00:00 3.3 0 Calma 5 Noroeste 0 -- -- 48
2020-01-13 10:00:00 -1.8 0 Calma 4 Este 0 -- -- 55
2020-01-13 09:00:00 -2.4 0 Calma 5 Sudeste 0 -- -- 53
2020-01-13 08:00:00 -2.5 0 Calma 3 Este 0 -- -- 52
2020-01-13 07:00:00 -2.3 0 Calma 5 Oeste 0 -- -- 51
2020-01-13 06:00:00 -2 0 Calma 6 Este 0 -- -- 47
2020-01-13 05:00:00 -2 0 Calma 4 Este 0 -- -- 51
2020-01-13 04:00:00 -2.2 0 Calma 4 Sudeste 0 -- -- 49
2020-01-13 03:00:00 -2.2 0 Calma 5 Sudeste 0 -- -- 53
2020-01-13 02:00:00 -2.1 0 Calma 4 Oeste 0 -- -- 51
2020-01-13 01:00:00 -1.7 0 Calma 3 Oeste 0 -- -- 53
2020-01-13 00:00:00 -1.4 0 Calma 4 Nordeste 0 -- -- 51
2020-01-12 23:00:00 -1.1 0 Calma 4 Este 0 -- -- 52
2020-01-12 22:00:00 -0.8 0 Calma 4 Sudoeste 0 -- -- 53
2020-01-12 21:00:00 -0.3 3 Este 5 Sur 0 -- -- 57
2020-01-12 20:00:00 0 0 Calma 6 Este 0 -- -- 59
2020-01-12 19:00:00 1.1 0 Calma 4 Este 0 -- -- 56
2020-01-12 18:00:00 2.9 0 Calma 8 Nordeste 0 -- -- 51
2020-01-12 17:00:00 4.5 4 Este 6 Este 0 -- -- 48
2020-01-12 16:00:00 10.3 4 Noroeste 9 Oeste 0 -- -- 36
2020-01-12 15:00:00 12 4 Oeste 10 Oeste 0 -- -- 23
2020-01-12 14:00:00 11.6 4 Oeste 8 Oeste 0 -- -- 24
2020-01-12 13:00:00 9.7 4 Oeste 8 Oeste 0 -- -- 24
2020-01-12 12:00:00 6.8 2 Oeste 6 Oeste 0 -- -- 34
2020-01-12 11:00:00 3.2 2 Norte 4 Oeste 0 -- -- 43
2020-01-12 10:00:00 -1.8 0 Calma 5 Oeste 0 -- -- 51
2020-01-12 09:00:00 -2.7 0 Calma 4 Oeste 0 -- -- 43
2020-01-12 08:00:00 -3.3 0 Calma 4 Este 0 -- -- 45
2020-01-12 07:00:00 -2.7 0 Calma 5 Sudoeste 0 -- -- 39
2020-01-12 06:00:00 -3 0 Calma 4 Sudoeste 0 -- -- 44
2020-01-12 05:00:00 -3 0 Calma 3 Oeste 0 -- -- 43
2020-01-12 04:00:00 -2.6 0 Calma 4 Este 0 -- -- 43
2020-01-12 03:00:00 -2.4 0 Calma 4 Sur 0 -- -- 45
2020-01-12 02:00:00 -2.2 3 Este 5 Este 0 -- -- 50
2020-01-12 01:00:00 -2.1 0 Calma 5 Sudoeste 0 -- -- 47
2020-01-12 00:00:00 -1.7 0 Calma 6 Este 0 -- -- 49
2020-01-11 23:00:00 -1.8 2 Sudoeste 8 Nordeste 0 -- -- 52
2020-01-11 22:00:00 -1.5 3 Este 8 Nordeste 0 -- -- 56
2020-01-11 21:00:00 -1.2 3 Nordeste 8 Este 0 -- -- 54
2020-01-11 20:00:00 -0.4 0 Calma 6 Este 0 -- -- 50
2020-01-11 19:00:00 0.7 4 Este 7 Nordeste 0 -- -- 53
2020-01-11 18:00:00 2.3 2 Sudoeste 5 Nordeste 0 -- -- 50
2020-01-11 17:00:00 4 2 Este 9 Nordeste 0 -- -- 47
2020-01-11 16:00:00 8.8 3 Noroeste 9 Noroeste 0 -- -- 37
2020-01-11 15:00:00 10.5 5 Noroeste 11 Oeste 0 -- -- 32
2020-01-11 14:00:00 10.2 7 Oeste 12 Oeste 0 -- -- 31
2020-01-11 13:00:00 8.7 6 Oeste 10 Oeste 0 -- -- 34
2020-01-11 12:00:00 5.5 5 Oeste 8 Oeste 0 -- -- 45
2020-01-11 11:00:00 2 3 Oeste 6 Oeste 0 -- -- 54
2020-01-11 10:00:00 -2.5 3 Sur 7 Este 0 -- -- 57
2020-01-11 09:00:00 -4.2 5 Sudeste 10 Nordeste 0 -- -- 63
2020-01-11 08:00:00 -3.7 2 Sudoeste 10 Este 0 -- -- 60
2020-01-11 07:00:00 -3.4 2 Este 10 Este 0 -- -- 63
2020-01-11 06:00:00 -3.3 2 Sur 9 Este 0 -- -- 62
2020-01-11 05:00:00 -2.8 5 Oeste 10 Oeste 0 -- -- 63
2020-01-11 04:00:00 -2.9 2 Oeste 12 Este 0 -- -- 63
2020-01-11 03:00:00 -2.6 3 Sudoeste 18 Este 0 -- -- 66
2020-01-11 02:00:00 -1.8 6 Sur 12 Este 0 -- -- 59
2020-01-11 01:00:00 -1.3 5 Sudeste 12 Este 0 -- -- 63
2020-01-11 00:00:00 -0.4 5 Sudeste 11 Nordeste 0 -- -- 62
2020-01-10 23:00:00 1.2 3 Sudeste 15 Este 0 -- -- 57
2020-01-10 22:00:00 2 7 Sur 19 Sur 0 -- -- 56
2020-01-10 21:00:00 1.3 4 Sur 11 Este 0 -- -- 65
2020-01-10 20:00:00 1.8 4 Este 13 Este 0 -- -- 64
2020-01-10 19:00:00 1.4 3 Sudoeste 9 Sur 0 -- -- 70
2020-01-10 18:00:00 3.8 3 Sudoeste 18 Norte 0 -- -- 61
2020-01-10 17:00:00 6.3 5 Nordeste 18 Nordeste 0 -- -- 47
2020-01-10 16:00:00 8 5 Oeste 15 Este 0 -- -- 50
2020-01-10 15:00:00 9 8 Oeste 16 Oeste 0 -- -- 50
2020-01-10 14:00:00 8.8 11 Noroeste 21 Noroeste 0 -- -- 48
2020-01-10 13:00:00 6.9 5 Oeste 11 Sudoeste 0 -- -- 70
2020-01-10 12:00:00 4 0 Calma 10 Oeste 0 -- -- 90
2020-01-10 11:00:00 2.6 3 Nordeste 8 Nordeste 0 -- -- 99
2020-01-10 10:00:00 1.6 0 Calma 6 Sudoeste 0 -- -- 99
2020-01-10 09:00:00 1.1 6 Este 9 Nordeste 0.4 -- -- 98
2020-01-10 08:00:00 1.1 2 Oeste 6 Nordeste 0.6 -- -- 96
2020-01-10 07:00:00 1.7 5 Sudoeste 8 Sur 2.2 -- -- 90
2020-01-10 06:00:00 3.4 2 Sudoeste 18 Sudeste 0.2 -- -- 80
2020-01-10 05:00:00 3.3 3 Sudoeste 6 Sur 0 -- -- 76
2020-01-10 04:00:00 3 2 Sudoeste 7 Nordeste 0 -- -- 75
2020-01-10 03:00:00 2.7 0 Calma 3 Noroeste 0 -- -- 75
2020-01-10 02:00:00 2.6 0 Calma 8 Este 0 -- -- 72
2020-01-10 01:00:00 2.3 0 Calma 5 Sudoeste 0 -- -- 73
2020-01-10 00:00:00 1.8 0 Calma 6 Sudoeste 0 -- -- 70
2020-01-09 23:00:00 1.9 4 Sudoeste 7 Sur 0 -- -- 68
2020-01-09 22:00:00 2.2 0 Calma 6 Sudoeste 0 -- -- 64
2020-01-09 21:00:00 2.2 0 Calma 7 Este 0 -- -- 66
2020-01-09 20:00:00 2.8 0 Calma 6 Este 0 -- -- 61
2020-01-09 19:00:00 3.3 0 Calma 6 Sudeste 0 -- -- 61
2020-01-09 18:00:00 4.7 0 Calma 8 Sudeste 0 -- -- 57
2020-01-09 17:00:00 7.2 3 Este 18 Nordeste 0 -- -- 47
2020-01-09 16:00:00 10.5 8 Nordeste 22 Nordeste 0 -- -- 42
2020-01-09 15:00:00 11.5 9 Nordeste 17 Este 0 -- -- 37
2020-01-09 14:00:00 12.1 8 Noroeste 13 Oeste 0 -- -- 41
2020-01-09 13:00:00 11 6 Oeste 11 Sudoeste 0 -- -- 44
2020-01-09 12:00:00 8.4 4 Oeste 7 Oeste 0 -- -- 58
2020-01-09 11:00:00 5 2 Oeste 4 Noroeste 0 -- -- 68
2020-01-09 10:00:00 0.3 0 Calma 4 Nordeste 0 -- -- 89
2020-01-09 09:00:00 -0.2 0 Calma 4 Oeste 0 -- -- 85
2020-01-09 08:00:00 -0.5 0 Calma 5 Oeste 0 -- -- 86
2020-01-09 07:00:00 -0.2 0 Calma 4 Nordeste 0 -- -- 86
2020-01-09 06:00:00 -0.2 0 Calma 4 Nordeste 0 -- -- 88
2020-01-09 05:00:00 0.6 0 Calma 2 Nordeste 0 -- -- 85
2020-01-09 04:00:00 0.6 0 Calma 5 Este 0 -- -- 85
2020-01-09 03:00:00 0.9 0 Calma 5 Este 0 -- -- 85
2020-01-09 02:00:00 0.8 0 Calma 4 Nordeste 0 -- -- 83
2020-01-09 01:00:00 1.2 0 Calma 3 Oeste 0 -- -- 81
2020-01-09 00:00:00 1.5 2 Oeste 4 Oeste 0 -- -- 78
2020-01-08 23:00:00 1.8 0 Calma 2 Este 0 -- -- 77
2020-01-08 22:00:00 2.3 0 Calma 3 Nordeste 0 -- -- 74
2020-01-08 21:00:00 2.9 2 Este 5 Este 0 -- -- 74
2020-01-08 20:00:00 3.6 0 Calma 5 Sudeste 0 -- -- 70
2020-01-08 19:00:00 5.3 3 Este 6 Este 0 -- -- 64
2020-01-08 18:00:00 8.6 0 Calma 8 Sur 0 -- -- 57
2020-01-08 17:00:00 10 3 Este 10 Sudeste 0 -- -- 46
2020-01-08 16:00:00 11.8 5 Oeste 9 Noroeste 0 -- -- 50
2020-01-08 15:00:00 12.9 5 Oeste 12 Noroeste 0 -- -- 39
2020-01-08 14:00:00 12.9 6 Oeste 12 Oeste 0 -- -- 37
2020-01-08 13:00:00 11.9 3 Norte 10 Oeste 0 -- -- 40
2020-01-08 12:00:00 10.6 4 Oeste 8 Noroeste 0 -- -- 40
2020-01-08 11:00:00 7.5 2 Oeste 4 Oeste 0 -- -- 50
2020-01-08 10:00:00 3.2 0 Calma 7 Este 0 -- -- 64
2020-01-08 09:00:00 2.3 2 Sudoeste 5 Sudoeste 0 -- -- 55
2020-01-08 08:00:00 2.7 0 Calma 4 Sudoeste 0 -- -- 53
2020-01-08 07:00:00 2.9 0 Calma 9 Este 0 -- -- 53
2020-01-08 06:00:00 2.8 3 Este 5 Este 0 -- -- 57
2020-01-08 05:00:00 2.4 4 Sudoeste 8 Nordeste 0 -- -- 60
2020-01-08 04:00:00 3.3 0 Calma 6 Este 0 -- -- 57
2020-01-08 03:00:00 2.7 0 Calma 6 Este 0 -- -- 63
2020-01-08 02:00:00 3.1 2 Oeste 5 Este 0 -- -- 61
2020-01-08 01:00:00 3.4 2 Este 6 Este 0 -- -- 60
2020-01-08 00:00:00 3.8 0 Calma 8 Este 0 -- -- 59
2020-01-07 23:00:00 4.1 0 Calma 8 Este 0 -- -- 57
2020-01-07 22:00:00 4.4 0 Calma 7 Este 0 -- -- 53
2020-01-07 21:00:00 4.6 2 Oeste 4 Sudoeste 0 -- -- 53
2020-01-07 20:00:00 4.5 0 Calma 6 Oeste 0 -- -- 54
2020-01-07 19:00:00 5.6 0 Calma 6 Este 0 -- -- 51
2020-01-07 18:00:00 7 0 Calma 4 Sur 0 -- -- 50
2020-01-07 17:00:00 9.1 0 Calma 7 Sudoeste 0 -- -- 47
2020-01-07 16:00:00 12.2 2 Noroeste 7 Oeste 0 -- -- 40
2020-01-07 15:00:00 14.1 3 Noroeste 8 Noroeste 0 -- -- 34
2020-01-07 14:00:00 14.1 5 Noroeste 9 Oeste 0 -- -- 35
2020-01-07 13:00:00 13.2 3 Oeste 6 Oeste 0 -- -- 36
2020-01-07 12:00:00 10.4 2 Oeste 5 Noroeste 0 -- -- 43
2020-01-07 11:00:00 6.9 0 Calma 4 Oeste 0 -- -- 53
2020-01-07 10:00:00 1.9 0 Calma 5 Nordeste 0 -- -- 59
2020-01-07 09:00:00 1 0 Calma 4 Nordeste 0 -- -- 55
2020-01-07 08:00:00 0.8 0 Calma 4 Sudoeste 0 -- -- 58
2020-01-07 07:00:00 0.7 0 Calma 6 Este 0 -- -- 63
2020-01-07 06:00:00 0.6 0 Calma 5 Nordeste 0 -- -- 66
2020-01-07 05:00:00 1.2 0 Calma 5 Este 0 -- -- 65
2020-01-07 04:00:00 1.4 0 Calma 4 Este 0 -- -- 64
2020-01-07 03:00:00 1.4 3 Este 6 Este 0 -- -- 66
2020-01-07 02:00:00 1.2 2 Este 6 Este 0 -- -- 68
2020-01-07 01:00:00 1.1 0 Calma 6 Este 0 -- -- 70
2020-01-07 00:00:00 1.5 0 Calma 8 Este 0 -- -- 67
2020-01-06 23:00:00 1.3 0 Calma 5 Oeste 0 -- -- 69
2020-01-06 22:00:00 1.7 0 Calma 4 Oeste 0 -- -- 65
2020-01-06 21:00:00 2.1 0 Calma 4 Sudoeste 0 -- -- 64
2020-01-06 20:00:00 2.4 0 Calma 4 Sudoeste 0 -- -- 64
2020-01-06 19:00:00 2.9 0 Calma 3 Sudoeste 0 -- -- 63
2020-01-06 18:00:00 4.3 0 Calma 5 Nordeste 0 -- -- 59
2020-01-06 17:00:00 5.8 5 Nordeste 9 Este 0 -- -- 52
2020-01-06 16:00:00 10.5 3 Oeste 8 Noroeste 0 -- -- 45
2020-01-06 15:00:00 12.6 4 Oeste 10 Noroeste 0 -- -- 36
2020-01-06 14:00:00 12 3 Norte 10 Noroeste 0 -- -- 33
2020-01-06 13:00:00 11.3 4 Oeste 7 Noroeste 0 -- -- 34
2020-01-06 12:00:00 8.5 2 Oeste 5 Oeste 0 -- -- 42
2020-01-06 11:00:00 5.2 0 Calma 3 Oeste 0 -- -- 54
2020-01-06 10:00:00 0.7 0 Calma 3 Este 0 -- -- 64